Time;durP1;ratioP1;P1;durP2;ratioP2;P2;SDS_P1;SDS_P2;PMS_P1;PMS_P2;Temp;Humidity;BMP_temperature;BMP_pressure;BME280_temperature;BME280_humidity;BME280_pressure;Samples;Min_cycle;Max_cycle;Signal;HPM_P1;HPM_P2
2023/10/14 00:00:55;;;;;;;1999.90;999.90;;;;;;;;;;5090456;28;20051;-87
2023/10/14 00:03:27;;;;;;;1999.90;999.90;;;;;;;;;;5097521;28;20122;-87
2023/10/14 00:05:54;;;;;;;1999.90;999.90;;;;;;;;;;5079661;28;20410;-86
2023/10/14 00:08:21;;;;;;;1999.90;999.90;;;;;;;;;;5081847;28;20080;-85
2023/10/14 00:10:49;;;;;;;1999.90;999.90;;;;;;;;;;5074516;28;20402;-87
2023/10/14 00:13:16;;;;;;;1999.90;999.90;;;;;;;;;;5060529;28;20064;-86
2023/10/14 00:15:45;;;;;;;1999.90;999.90;;;;;;;;;;5073942;28;20510;-85
2023/10/14 00:18:14;;;;;;;1999.90;999.90;;;;;;;;;;5076598;28;20052;-88
2023/10/14 00:20:42;;;;;;;1999.90;999.90;;;;;;;;;;5078762;28;20133;-86
2023/10/14 00:23:11;;;;;;;1999.90;999.90;;;;;;;;;;5071249;28;20105;-86
2023/10/14 00:25:40;;;;;;;1999.90;999.90;;;;;;;;;;5058499;28;20048;-84
2023/10/14 00:28:12;;;;;;;1999.90;999.90;;;;;;;;;;5075683;28;20418;-86
2023/10/14 00:30:39;;;;;;;1999.90;999.90;;;;;;;;;;5053573;28;20127;-86
2023/10/14 00:33:06;;;;;;;1999.90;999.90;;;;;;;;;;5077326;28;20113;-87
2023/10/14 00:35:39;;;;;;;1999.90;999.90;;;;;;;;;;5070505;28;20049;-88
2023/10/14 00:38:08;;;;;;;1999.90;999.90;;;;;;;;;;5076565;28;20044;-85
2023/10/14 00:40:37;;;;;;;1999.90;999.90;;;;;;;;;;5078392;28;20113;-84
2023/10/14 00:43:20;;;;;;;1999.90;999.90;;;;;;;;;;5088167;28;20083;-85
2023/10/14 00:45:49;;;;;;;1999.90;999.90;;;;;;;;;;5068444;28;20048;-84
2023/10/14 00:48:26;;;;;;;1999.90;999.90;;;;;;;;;;5054862;28;20117;-84
2023/10/14 00:50:58;;;;;;;1999.90;999.90;;;;;;;;;;5051242;28;20053;-87
2023/10/14 00:53:27;;;;;;;1999.90;999.90;;;;;;;;;;5048562;28;20052;-86
2023/10/14 00:55:54;;;;;;;1999.90;999.90;;;;;;;;;;5076629;28;20052;-84
2023/10/14 00:58:23;;;;;;;1999.90;999.90;;;;;;;;;;5069540;28;20052;-83
2023/10/14 01:01:00;;;;;;;1999.90;999.90;;;;;;;;;;5049312;28;20044;-88
2023/10/14 01:03:27;;;;;;;1999.90;999.90;;;;;;;;;;5130469;22;20452;-87
2023/10/14 01:05:56;;;;;;;1999.90;999.90;;;;;;;;;;5117663;27;20092;-87
2023/10/14 01:08:26;;;;;;;1999.90;999.90;;;;;;;;;;5120253;27;20047;-85
2023/10/14 01:10:52;;;;;;;1999.90;999.90;;;;;;;;;;5114278;27;20480;-85
2023/10/14 01:13:22;;;;;;;1999.90;999.90;;;;;;;;;;5118273;27;20039;-87
2023/10/14 01:15:53;;;;;;;1999.90;999.90;;;;;;;;;;5111581;27;20471;-88
2023/10/14 01:18:19;;;;;;;1999.90;999.90;;;;;;;;;;5113190;27;20398;-85
2023/10/14 01:20:46;;;;;;;1999.90;999.90;;;;;;;;;;5116598;27;20065;-84
2023/10/14 01:23:16;;;;;;;1999.90;999.90;;;;;;;;;;5109518;27;20048;-86
2023/10/14 01:25:48;;;;;;;1999.90;999.90;;;;;;;;;;5115256;27;20593;-86
2023/10/14 01:28:20;;;;;;;1999.90;999.90;;;;;;;;;;5117740;27;20052;-87
2023/10/14 01:31:23;;;;;;;1999.90;999.90;;;;;;;;;;5115100;27;20058;-84
2023/10/14 01:33:50;;;;;;;1999.90;999.90;;;;;;;;;;5117241;27;20043;-91
2023/10/14 01:36:16;;;;;;;1999.90;999.90;;;;;;;;;;5119248;27;20578;-83
2023/10/14 01:38:51;;;;;;;1999.90;999.90;;;;;;;;;;5119440;27;20056;-86
2023/10/14 01:41:17;;;;;;;1999.90;999.90;;;;;;;;;;5113560;27;20054;-87
2023/10/14 01:43:57;;;;;;;1999.90;999.90;;;;;;;;;;5119373;27;20092;-86
2023/10/14 01:46:27;;;;;;;1999.90;999.90;;;;;;;;;;5120340;27;20426;-86
2023/10/14 01:48:55;;;;;;;1999.90;999.90;;;;;;;;;;5117503;27;20466;-85
2023/10/14 01:51:25;;;;;;;1999.90;999.90;;;;;;;;;;5122386;27;20513;-86
2023/10/14 01:53:53;;;;;;;1999.90;999.90;;;;;;;;;;5118376;27;20058;-92
2023/10/14 01:56:19;;;;;;;1999.90;999.90;;;;;;;;;;5119673;27;20051;-86
2023/10/14 01:58:46;;;;;;;1999.90;999.90;;;;;;;;;;5118640;27;20495;-86
2023/10/14 02:01:15;;;;;;;1999.90;999.90;;;;;;;;;;5123338;27;20047;-87
2023/10/14 02:03:46;;;;;;;1999.90;999.90;;;;;;;;;;5109049;27;20075;-87
2023/10/14 02:06:16;;;;;;;1999.90;999.90;;;;;;;;;;5112896;28;20388;-85
2023/10/14 02:08:44;;;;;;;1999.90;999.90;;;;;;;;;;5110588;28;20056;-86
2023/10/14 02:11:12;;;;;;;1999.90;999.90;;;;;;;;;;5106077;28;20105;-89
2023/10/14 02:13:39;;;;;;;1999.90;999.90;;;;;;;;;;5113703;27;20047;-85
2023/10/14 02:16:08;;;;;;;1999.90;999.90;;;;;;;;;;5105204;28;20077;-85
2023/10/14 02:18:36;;;;;;;1999.90;999.90;;;;;;;;;;5122481;28;20043;-89
2023/10/14 02:21:08;;;;;;;1999.90;999.90;;;;;;;;;;5112697;28;20101;-88
2023/10/14 02:23:44;;;;;;;1999.90;999.90;;;;;;;;;;5112927;27;21169;-86
2023/10/14 02:26:16;;;;;;;1999.90;999.90;;;;;;;;;;5119538;27;20054;-88
2023/10/14 02:28:45;;;;;;;1999.90;999.90;;;;;;;;;;5117445;27;20043;-90
2023/10/14 02:31:17;;;;;;;1999.90;999.90;;;;;;;;;;5116866;27;20052;-84
2023/10/14 02:33:45;;;;;;;1999.90;999.90;;;;;;;;;;5116733;27;20426;-84
2023/10/14 02:36:15;;;;;;;1999.90;999.90;;;;;;;;;;5111386;27;20051;-85
2023/10/14 02:38:43;;;;;;;1999.90;999.90;;;;;;;;;;5112827;27;20043;-83
2023/10/14 02:41:10;;;;;;;1999.90;999.90;;;;;;;;;;5117111;27;20446;-84
2023/10/14 02:43:38;;;;;;;1999.90;999.90;;;;;;;;;;5121155;27;20050;-86
2023/10/14 02:46:10;;;;;;;1999.90;999.90;;;;;;;;;;5122987;27;20514;-85
2023/10/14 02:48:52;;;;;;;1999.90;999.90;;;;;;;;;;5119249;27;20113;-85
2023/10/14 02:51:29;;;;;;;1999.90;999.90;;;;;;;;;;5117236;27;20095;-85
2023/10/14 02:54:03;;;;;;;1999.90;999.90;;;;;;;;;;5112139;27;20137;-86
2023/10/14 02:56:43;;;;;;;1999.90;999.90;;;;;;;;;;5129160;27;20043;-86
2023/10/14 02:59:15;;;;;;;1999.90;999.90;;;;;;;;;;5114227;27;20043;-87
2023/10/14 03:01:50;;;;;;;1999.90;999.90;;;;;;;;;;5116987;27;20051;-86
2023/10/14 03:04:19;;;;;;;1999.90;999.90;;;;;;;;;;5126107;27;20063;-88
2023/10/14 03:06:49;;;;;;;1999.90;999.90;;;;;;;;;;5113139;27;20047;-87
2023/10/14 03:09:18;;;;;;;1999.90;999.90;;;;;;;;;;5120790;27;20044;-85
2023/10/14 03:11:47;;;;;;;1999.90;999.90;;;;;;;;;;5116268;27;20043;-85
2023/10/14 03:14:20;;;;;;;1999.90;999.90;;;;;;;;;;5116274;27;20043;-87
2023/10/14 03:16:47;;;;;;;1999.90;999.90;;;;;;;;;;5124673;27;20523;-83
2023/10/14 03:19:12;;;;;;;1999.90;999.90;;;;;;;;;;5112175;27;20116;-86
2023/10/14 03:21:52;;;;;;;1999.90;999.90;;;;;;;;;;5109030;27;20051;-85
2023/10/14 03:24:19;;;;;;;1999.90;999.90;;;;;;;;;;5122152;27;20051;-87
2023/10/14 03:26:49;;;;;;;1999.90;999.90;;;;;;;;;;5115259;27;20042;-84
2023/10/14 03:29:16;;;;;;;1999.90;999.90;;;;;;;;;;5116790;27;20043;-86
2023/10/14 03:31:44;;;;;;;1999.90;999.90;;;;;;;;;;5122519;27;20054;-87
2023/10/14 03:34:12;;;;;;;1999.90;999.90;;;;;;;;;;5121145;27;20044;-88
2023/10/14 03:36:42;;;;;;;1999.90;999.90;;;;;;;;;;5110871;27;20082;-89
2023/10/14 03:39:21;;;;;;;1999.90;999.90;;;;;;;;;;5117668;27;20199;-88
2023/10/14 03:41:52;;;;;;;1999.90;999.90;;;;;;;;;;5120583;27;20047;-86
2023/10/14 03:44:22;;;;;;;1999.90;999.90;;;;;;;;;;5115258;27;20081;-90
2023/10/14 03:46:59;;;;;;;1999.90;999.90;;;;;;;;;;5120429;27;20047;-89
2023/10/14 03:49:26;;;;;;;1999.90;999.90;;;;;;;;;;5114488;27;20047;-84
2023/10/14 03:51:56;;;;;;;1999.90;999.90;;;;;;;;;;5113225;27;20172;-87
2023/10/14 03:54:26;;;;;;;1999.90;999.90;;;;;;;;;;5127833;27;20051;-85
2023/10/14 03:56:53;;;;;;;1999.90;999.90;;;;;;;;;;5114336;27;20049;-88
2023/10/14 03:59:22;;;;;;;1999.90;999.90;;;;;;;;;;5121844;27;20043;-86
2023/10/14 04:01:57;;;;;;;1999.90;999.90;;;;;;;;;;5115478;27;20066;-84
2023/10/14 04:04:24;;;;;;;1999.90;999.90;;;;;;;;;;5115830;27;20055;-87
2023/10/14 04:07:12;;;;;;;1999.90;999.90;;;;;;;;;;5118739;27;20117;-91
2023/10/14 04:09:40;;;;;;;1999.90;999.90;;;;;;;;;;5111182;27;20264;-88
2023/10/14 04:12:09;;;;;;;1999.90;999.90;;;;;;;;;;5117732;27;20445;-89
2023/10/14 04:14:37;;;;;;;1999.90;999.90;;;;;;;;;;5106019;27;20123;-84
2023/10/14 04:17:10;;;;;;;1999.90;999.90;;;;;;;;;;5114903;27;20043;-86
2023/10/14 04:19:46;;;;;;;1999.90;999.90;;;;;;;;;;5110851;27;20044;-88
2023/10/14 04:22:27;;;;;;;;;;;;;;;;;;5117275;27;20082;-91
2023/10/14 04:25:07;;;;;;;1999.90;999.90;;;;;;;;;;5121227;27;19923;-88
2023/10/14 04:27:35;;;;;;;1999.90;999.90;;;;;;;;;;5111978;27;20047;-88
2023/10/14 04:30:10;;;;;;;1999.90;999.90;;;;;;;;;;5120392;27;20051;-88
2023/10/14 04:32:46;;;;;;;1999.90;999.90;;;;;;;;;;5113169;27;20054;-85
2023/10/14 04:35:13;;;;;;;;;;;;;;;;;;5120619;27;20083;-90
2023/10/14 04:37:51;;;;;;;1999.90;999.90;;;;;;;;;;5112710;27;20026;-86
2023/10/14 04:40:35;;;;;;;1999.90;999.90;;;;;;;;;;5114946;27;20047;-88
2023/10/14 04:43:11;;;;;;;1999.90;999.90;;;;;;;;;;5110971;27;20496;-83
2023/10/14 04:45:37;;;;;;;1999.90;999.90;;;;;;;;;;5111039;27;20052;-91
2023/10/14 04:48:06;;;;;;;1999.90;999.90;;;;;;;;;;5109498;27;20047;-86
2023/10/14 04:50:33;;;;;;;1999.90;999.90;;;;;;;;;;5112311;27;20048;-86
2023/10/14 04:52:59;;;;;;;1999.90;999.90;;;;;;;;;;5111107;27;20046;-88
2023/10/14 04:55:28;;;;;;;1999.90;999.90;;;;;;;;;;5112988;27;20079;-89
2023/10/14 04:58:11;;;;;;;1999.90;999.90;;;;;;;;;;5114833;27;20067;-87
2023/10/14 05:00:42;;;;;;;1999.90;999.90;;;;;;;;;;5114643;27;20047;-88
2023/10/14 05:03:11;;;;;;;1999.90;999.90;;;;;;;;;;5113958;27;20059;-86
2023/10/14 05:05:41;;;;;;;1999.90;999.90;;;;;;;;;;5115641;27;20052;-91
2023/10/14 05:08:12;;;;;;;1999.90;999.90;;;;;;;;;;5114506;27;20449;-86
2023/10/14 05:10:41;;;;;;;1999.90;999.90;;;;;;;;;;5114079;27;20043;-88
2023/10/14 05:13:10;;;;;;;1999.90;999.90;;;;;;;;;;5094664;27;20058;-89
2023/10/14 05:15:40;;;;;;;1999.90;999.90;;;;;;;;;;5117835;27;20113;-87
2023/10/14 05:18:07;;;;;;;1999.90;999.90;;;;;;;;;;5116044;27;20051;-88
2023/10/14 05:20:54;;;;;;;1999.90;999.90;;;;;;;;;;5108792;27;20054;-88
2023/10/14 05:23:24;;;;;;;1999.90;999.90;;;;;;;;;;5116785;27;20529;-87
2023/10/14 05:25:56;;;;;;;1999.90;999.90;;;;;;;;;;5112145;27;20043;-89
2023/10/14 05:28:29;;;;;;;1999.90;999.90;;;;;;;;;;5113456;27;20462;-90
2023/10/14 05:30:57;;;;;;;1999.90;999.90;;;;;;;;;;5115104;27;20126;-87
2023/10/14 05:33:23;;;;;;;1999.90;999.90;;;;;;;;;;5131448;27;20050;-88
2023/10/14 05:35:53;;;;;;;1999.90;999.90;;;;;;;;;;5121873;27;20071;-88
2023/10/14 05:38:22;;;;;;;1999.90;999.90;;;;;;;;;;5120017;27;20055;-88
2023/10/14 05:40:52;;;;;;;1999.90;999.90;;;;;;;;;;5121381;27;20043;-86
2023/10/14 05:43:21;;;;;;;1999.90;999.90;;;;;;;;;;5122178;27;20052;-89
2023/10/14 05:45:48;;;;;;;1999.90;999.90;;;;;;;;;;5117830;27;20078;-88
2023/10/14 05:48:15;;;;;;;1999.90;999.90;;;;;;;;;;5117599;27;20223;-89
2023/10/14 05:50:41;;;;;;;1999.90;999.90;;;;;;;;;;5124711;27;20043;-86
2023/10/14 05:53:09;;;;;;;1999.90;999.90;;;;;;;;;;5110527;28;20050;-92
2023/10/14 05:55:39;;;;;;;1999.90;999.90;;;;;;;;;;5123233;27;20052;-89
2023/10/14 05:58:08;;;;;;;1999.90;999.90;;;;;;;;;;5115655;27;20448;-90
2023/10/14 06:00:38;;;;;;;1999.90;999.90;;;;;;;;;;5117054;27;20044;-91
2023/10/14 06:03:11;;;;;;;1999.90;999.90;;;;;;;;;;5126313;27;20044;-84
2023/10/14 06:05:39;;;;;;;1999.90;999.90;;;;;;;;;;5128385;27;20054;-86
2023/10/14 06:08:06;;;;;;;1999.90;999.90;;;;;;;;;;5128640;27;20144;-86
2023/10/14 06:10:41;;;;;;;1999.90;999.90;;;;;;;;;;5124345;27;20051;-87
2023/10/14 06:13:09;;;;;;;1999.90;999.90;;;;;;;;;;5123090;27;20062;-90
2023/10/14 06:15:38;;;;;;;1999.90;999.90;;;;;;;;;;5123738;27;20051;-87
2023/10/14 06:18:05;;;;;;;1999.90;999.90;;;;;;;;;;5119438;28;20115;-85
2023/10/14 06:20:32;;;;;;;1999.90;999.90;;;;;;;;;;5126481;28;20051;-87
2023/10/14 06:22:59;;;;;;;1999.90;999.90;;;;;;;;;;5126134;28;20047;-85
2023/10/14 06:25:29;;;;;;;1999.90;999.90;;;;;;;;;;5123637;28;20385;-84
2023/10/14 06:27:58;;;;;;;1999.90;999.90;;;;;;;;;;5130385;28;20055;-88
2023/10/14 06:30:25;;;;;;;1999.90;999.90;;;;;;;;;;5126996;28;20056;-87
2023/10/14 06:32:58;;;;;;;1999.90;999.90;;;;;;;;;;5118305;28;20404;-85
2023/10/14 06:35:26;;;;;;;1999.90;999.90;;;;;;;;;;5119192;28;20048;-87
2023/10/14 06:37:53;;;;;;;1999.90;999.90;;;;;;;;;;5126175;28;20055;-87
2023/10/14 06:40:20;;;;;;;1999.90;999.90;;;;;;;;;;5123714;28;20060;-87
2023/10/14 06:42:49;;;;;;;1999.90;999.90;;;;;;;;;;5120306;28;20102;-87
2023/10/14 06:45:22;;;;;;;1999.90;999.90;;;;;;;;;;5127160;28;20130;-85
2023/10/14 06:47:51;;;;;;;1999.90;999.90;;;;;;;;;;5120583;28;20044;-89
2023/10/14 06:50:23;;;;;;;1999.90;999.90;;;;;;;;;;5119305;28;20047;-86
2023/10/14 06:52:53;;;;;;;1999.90;999.90;;;;;;;;;;5119299;28;20078;-89
2023/10/14 06:55:22;;;;;;;1999.90;999.90;;;;;;;;;;5122169;28;20062;-87
2023/10/14 06:57:51;;;;;;;1999.90;999.90;;;;;;;;;;5123791;28;20039;-85
2023/10/14 07:00:25;;;;;;;1999.90;999.90;;;;;;;;;;5121882;28;20048;-86
2023/10/14 07:02:54;;;;;;;1999.90;999.90;;;;;;;;;;5123778;28;20059;-89
2023/10/14 07:05:21;;;;;;;1999.90;999.90;;;;;;;;;;5107955;28;20111;-86
2023/10/14 07:07:48;;;;;;;1999.90;999.90;;;;;;;;;;5116761;28;20057;-88
2023/10/14 07:10:15;;;;;;;1999.90;999.90;;;;;;;;;;5121925;27;20044;-88
2023/10/14 07:12:42;;;;;;;1999.90;999.90;;;;;;;;;;5123954;27;20043;-86
2023/10/14 07:15:12;;;;;;;1999.90;999.90;;;;;;;;;;5119376;27;20500;-86
2023/10/14 07:17:41;;;;;;;1999.90;999.90;;;;;;;;;;5116378;27;20072;-85
2023/10/14 07:20:11;;;;;;;1999.90;999.90;;;;;;;;;;5114615;27;20055;-89
2023/10/14 07:22:37;;;;;;;1999.90;999.90;;;;;;;;;;5120014;27;20048;-86
2023/10/14 07:25:05;;;;;;;1999.90;999.90;;;;;;;;;;5116164;27;20047;-87
2023/10/14 07:27:35;;;;;;;1999.90;999.90;;;;;;;;;;5114886;27;20487;-86
2023/10/14 07:30:03;;;;;;;1999.90;999.90;;;;;;;;;;5118364;27;20403;-88
2023/10/14 07:32:30;;;;;;;1999.90;999.90;;;;;;;;;;5117475;27;20059;-84
2023/10/14 07:35:02;;;;;;;1999.90;999.90;;;;;;;;;;5114705;27;20043;-90
2023/10/14 07:37:30;;;;;;;1999.90;999.90;;;;;;;;;;5111003;27;20043;-84
2023/10/14 07:39:56;;;;;;;1999.90;999.90;;;;;;;;;;5116739;27;20101;-83
2023/10/14 07:42:23;;;;;;;1999.90;999.90;;;;;;;;;;5120141;27;20051;-87
2023/10/14 07:44:49;;;;;;;1999.90;999.90;;;;;;;;;;5115809;27;20048;-87
2023/10/14 07:47:16;;;;;;;1999.90;999.90;;;;;;;;;;5110875;27;20416;-87
2023/10/14 07:49:44;;;;;;;1999.90;999.90;;;;;;;;;;5112780;27;20057;-86
2023/10/14 07:52:14;;;;;;;1999.90;999.90;;;;;;;;;;5118918;27;20499;-84
2023/10/14 07:54:42;;;;;;;1999.90;999.90;;;;;;;;;;5115348;27;20806;-86
2023/10/14 07:57:11;;;;;;;1999.90;999.90;;;;;;;;;;5119777;27;20514;-91
2023/10/14 07:59:38;;;;;;;1999.90;999.90;;;;;;;;;;5116653;27;20078;-86
2023/10/14 08:02:07;;;;;;;1999.90;999.90;;;;;;;;;;5113553;27;20503;-87
2023/10/14 08:04:34;;;;;;;1999.90;999.90;;;;;;;;;;5118252;27;20054;-84
2023/10/14 08:07:04;;;;;;;1999.90;999.90;;;;;;;;;;5118226;27;20051;-88
2023/10/14 08:09:39;;;;;;;1999.90;999.90;;;;;;;;;;5121729;27;20091;-85
2023/10/14 08:12:05;;;;;;;1999.90;999.90;;;;;;;;;;5123942;27;20047;-94
2023/10/14 08:14:32;;;;;;;1999.90;999.90;;;;;;;;;;5119309;27;20052;-91
2023/10/14 08:16:58;;;;;;;1999.90;999.90;;;;;;;;;;5112320;27;20044;-89
2023/10/14 08:19:26;;;;;;;1999.90;999.90;;;;;;;;;;5116380;27;20044;-93
2023/10/14 08:21:52;;;;;;;1999.90;999.90;;;;;;;;;;5115305;27;20123;-90
2023/10/14 08:24:20;;;;;;;1999.90;999.90;;;;;;;;;;5117793;27;20047;-89
2023/10/14 08:26:49;;;;;;;1999.90;999.90;;;;;;;;;;5116434;27;20054;-88
2023/10/14 08:29:19;;;;;;;1999.90;999.90;;;;;;;;;;5114626;27;20058;-89
2023/10/14 08:31:51;;;;;;;1999.90;999.90;;;;;;;;;;5114533;27;20500;-88
2023/10/14 08:34:18;;;;;;;1999.90;999.90;;;;;;;;;;5115484;27;20087;-88
2023/10/14 08:36:44;;;;;;;1999.90;999.90;;;;;;;;;;5122123;27;20070;-88
2023/10/14 08:39:11;;;;;;;1999.90;999.90;;;;;;;;;;5107361;27;20506;-88
2023/10/14 08:41:40;;;;;;;1999.90;999.90;;;;;;;;;;5122848;27;20104;-87
2023/10/14 08:44:10;;;;;;;1999.90;999.90;;;;;;;;;;5118138;27;20051;-85
2023/10/14 08:46:39;;;;;;;1999.90;999.90;;;;;;;;;;5115234;27;20052;-89
2023/10/14 08:49:07;;;;;;;1999.90;999.90;;;;;;;;;;5112677;27;20051;-87
2023/10/14 08:51:35;;;;;;;1999.90;999.90;;;;;;;;;;5118522;27;20071;-87
2023/10/14 08:54:06;;;;;;;1999.90;999.90;;;;;;;;;;5121125;27;20051;-90
2023/10/14 08:56:34;;;;;;;1999.90;999.90;;;;;;;;;;5117322;27;20133;-88
2023/10/14 08:59:00;;;;;;;1999.90;999.90;;;;;;;;;;5116275;27;20091;-82
2023/10/14 09:01:31;;;;;;;1999.90;999.90;;;;;;;;;;5114776;27;20043;-88
2023/10/14 09:03:59;;;;;;;1999.90;999.90;;;;;;;;;;5116295;27;20059;-90
2023/10/14 09:06:26;;;;;;;1999.90;999.90;;;;;;;;;;5117875;27;20055;-88
2023/10/14 09:08:53;;;;;;;1999.90;999.90;;;;;;;;;;5116746;27;20058;-92
2023/10/14 09:11:28;;;;;;;1999.90;999.90;;;;;;;;;;5114999;27;20044;-85
2023/10/14 09:14:02;;;;;;;1999.90;999.90;;;;;;;;;;5114872;27;20050;-84
2023/10/14 09:16:32;;;;;;;1999.90;999.90;;;;;;;;;;5115388;27;20089;-89
2023/10/14 09:18:59;;;;;;;1999.90;999.90;;;;;;;;;;5116169;27;20104;-84
2023/10/14 09:21:26;;;;;;;1999.90;999.90;;;;;;;;;;5115887;27;20478;-84
2023/10/14 09:23:52;;;;;;;1999.90;999.90;;;;;;;;;;5113510;27;20066;-87
2023/10/14 09:26:19;;;;;;;1999.90;999.90;;;;;;;;;;5114252;27;20058;-85
2023/10/14 09:28:48;;;;;;;1999.90;999.90;;;;;;;;;;5113346;27;20480;-84
2023/10/14 09:31:14;;;;;;;1999.90;999.90;;;;;;;;;;5118665;27;20142;-83
2023/10/14 09:33:44;;;;;;;1999.90;999.90;;;;;;;;;;5116585;27;20044;-83
2023/10/14 09:36:14;;;;;;;1999.90;999.90;;;;;;;;;;5113011;27;20415;-85
2023/10/14 09:38:41;;;;;;;1999.90;999.90;;;;;;;;;;5112463;27;20048;-84
2023/10/14 09:41:11;;;;;;;1999.90;999.90;;;;;;;;;;5116805;27;20122;-85
2023/10/14 09:43:46;;;;;;;1999.90;999.90;;;;;;;;;;5118517;27;20057;-85
2023/10/14 09:46:16;;;;;;;1999.90;999.90;;;;;;;;;;5113007;27;20048;-86
2023/10/14 09:48:44;;;;;;;1999.90;999.90;;;;;;;;;;5112170;27;20039;-81
2023/10/14 09:51:12;;;;;;;1999.90;999.90;;;;;;;;;;5111099;27;20055;-85
2023/10/14 09:53:39;;;;;;;1999.90;999.90;;;;;;;;;;5119469;27;20036;-84
2023/10/14 09:56:08;;;;;;;1999.90;999.90;;;;;;;;;;5120899;27;20048;-87
2023/10/14 09:58:36;;;;;;;1999.90;999.90;;;;;;;;;;5115827;27;20066;-84
2023/10/14 10:01:04;;;;;;;1999.90;999.90;;;;;;;;;;5117988;27;20046;-87
2023/10/14 10:03:33;;;;;;;1999.90;999.90;;;;;;;;;;5114632;27;20051;-84
2023/10/14 10:06:12;;;;;;;1999.90;999.90;;;;;;;;;;5094936;28;20051;-84
2023/10/14 10:08:55;;;;;;;1999.90;999.90;;;;;;;;;;5102584;28;20050;-85
2023/10/14 10:11:24;;;;;;;1999.90;999.90;;;;;;;;;;5099286;28;20052;-82
2023/10/14 10:13:52;;;;;;;1999.90;999.90;;;;;;;;;;5090750;28;20041;-81
2023/10/14 10:16:20;;;;;;;1999.90;999.90;;;;;;;;;;5098107;28;20052;-86
2023/10/14 10:18:51;;;;;;;1999.90;999.90;;;;;;;;;;5094782;28;20040;-84
2023/10/14 10:21:20;;;;;;;1999.90;999.90;;;;;;;;;;5099967;28;20052;-88
2023/10/14 10:23:50;;;;;;;1999.90;999.90;;;;;;;;;;5090503;28;20059;-87
2023/10/14 10:26:18;;;;;;;1999.90;999.90;;;;;;;;;;5092034;28;20052;-83
2023/10/14 10:28:46;;;;;;;1999.90;999.90;;;;;;;;;;5090571;28;20051;-84
2023/10/14 10:31:16;;;;;;;1999.90;999.90;;;;;;;;;;5094316;28;20474;-85
2023/10/14 10:34:01;;;;;;;1999.90;999.90;;;;;;;;;;5095233;28;20467;-86
2023/10/14 10:36:31;;;;;;;1999.90;999.90;;;;;;;;;;5087329;28;20052;-85
2023/10/14 10:39:15;;;;;;;1999.90;999.90;;;;;;;;;;5090153;28;20427;-85
2023/10/14 10:41:42;;;;;;;1999.90;999.90;;;;;;;;;;5093438;28;20044;-84
2023/10/14 10:44:11;;;;;;;1999.90;999.90;;;;;;;;;;5098979;28;20062;-84
2023/10/14 10:46:39;;;;;;;1999.90;999.90;;;;;;;;;;5096521;28;20051;-83
2023/10/14 10:49:10;;;;;;;1999.90;999.90;;;;;;;;;;5092450;28;20484;-83
2023/10/14 10:51:43;;;;;;;1999.90;999.90;;;;;;;;;;5094045;28;20051;-82
2023/10/14 10:54:12;;;;;;;1999.90;999.90;;;;;;;;;;5103588;28;20051;-83
2023/10/14 10:56:41;;;;;;;1999.90;999.90;;;;;;;;;;5103365;28;20047;-85
2023/10/14 10:59:07;;;;;;;1999.90;999.90;;;;;;;;;;5099857;28;20348;-79
2023/10/14 11:01:34;;;;;;;1999.90;999.90;;;;;;;;;;5094817;28;20039;-80
2023/10/14 11:04:03;;;;;;;1999.90;999.90;;;;;;;;;;5116864;27;20074;-81
2023/10/14 11:06:31;;;;;;;1999.90;999.90;;;;;;;;;;5118041;27;20040;-85
2023/10/14 11:08:59;;;;;;;1999.90;999.90;;;;;;;;;;5120070;27;20545;-82
2023/10/14 11:11:33;;;;;;;1999.90;999.90;;;;;;;;;;5120230;27;20514;-81
2023/10/14 11:14:01;;;;;;;1999.90;999.90;;;;;;;;;;5118106;27;20047;-81
2023/10/14 11:16:29;;;;;;;1999.90;999.90;;;;;;;;;;5116285;27;20043;-82
2023/10/14 11:18:55;;;;;;;1999.90;999.90;;;;;;;;;;5117240;27;20043;-81
2023/10/14 11:21:22;;;;;;;1999.90;999.90;;;;;;;;;;5120120;27;20050;-83
2023/10/14 11:23:52;;;;;;;1999.90;999.90;;;;;;;;;;5112077;27;20066;-82
2023/10/14 11:26:20;;;;;;;1999.90;999.90;;;;;;;;;;5113971;27;20051;-80
2023/10/14 11:28:48;;;;;;;1999.90;999.90;;;;;;;;;;5114919;27;20044;-83
2023/10/14 11:31:15;;;;;;;1999.90;999.90;;;;;;;;;;5119374;27;20050;-83
2023/10/14 11:33:45;;;;;;;1999.90;999.90;;;;;;;;;;5120029;27;20214;-83
2023/10/14 11:36:17;;;;;;;1999.90;999.90;;;;;;;;;;5116514;27;20055;-82
2023/10/14 11:38:46;;;;;;;1999.90;999.90;;;;;;;;;;5116608;27;20051;-84
2023/10/14 11:41:15;;;;;;;1999.90;999.90;;;;;;;;;;5118308;27;20468;-84
2023/10/14 11:43:44;;;;;;;1999.90;999.90;;;;;;;;;;5117992;27;20120;-83
2023/10/14 11:46:11;;;;;;;1999.90;999.90;;;;;;;;;;5112776;27;20054;-83
2023/10/14 11:48:38;;;;;;;1999.90;999.90;;;;;;;;;;5116685;27;20056;-83
2023/10/14 11:51:11;;;;;;;1999.90;999.90;;;;;;;;;;5110206;27;20102;-84
2023/10/14 11:53:43;;;;;;;1999.90;999.90;;;;;;;;;;5113584;27;20058;-86
2023/10/14 11:56:13;;;;;;;1999.90;999.90;;;;;;;;;;5116540;27;20043;-84
2023/10/14 11:58:41;;;;;;;1999.90;999.90;;;;;;;;;;5118566;27;20040;-84
2023/10/14 12:01:10;;;;;;;1999.90;999.90;;;;;;;;;;5111395;27;20044;-84
2023/10/14 12:03:36;;;;;;;1999.90;999.90;;;;;;;;;;5116765;27;20056;-86
2023/10/14 12:06:03;;;;;;;1999.90;999.90;;;;;;;;;;5118291;27;20402;-82
2023/10/14 12:08:31;;;;;;;1999.90;999.90;;;;;;;;;;5111385;27;20041;-86
2023/10/14 12:10:57;;;;;;;1999.90;999.90;;;;;;;;;;5120944;27;20047;-85
2023/10/14 12:13:25;;;;;;;1999.90;999.90;;;;;;;;;;5116372;27;20393;-84
2023/10/14 12:15:51;;;;;;;1999.90;999.90;;;;;;;;;;5116049;27;20134;-83
2023/10/14 12:18:20;;;;;;;1999.90;999.90;;;;;;;;;;5111841;27;20081;-87
2023/10/14 12:20:48;;;;;;;1999.90;999.90;;;;;;;;;;5111304;27;20147;-86
2023/10/14 12:23:14;;;;;;;1999.90;999.90;;;;;;;;;;5118313;27;20456;-84
2023/10/14 12:25:41;;;;;;;1999.90;999.90;;;;;;;;;;5119634;27;20047;-84
2023/10/14 12:28:08;;;;;;;1999.90;999.90;;;;;;;;;;5113481;27;20516;-84
2023/10/14 12:30:41;;;;;;;1999.90;999.90;;;;;;;;;;5114249;27;20479;-85
2023/10/14 12:33:08;;;;;;;1999.90;999.90;;;;;;;;;;5112561;27;20497;-86
2023/10/14 12:35:39;;;;;;;1999.90;999.90;;;;;;;;;;5111467;27;20075;-87
2023/10/14 12:38:11;;;;;;;1999.90;999.90;;;;;;;;;;5108839;27;20035;-86
2023/10/14 12:40:37;;;;;;;1999.90;999.90;;;;;;;;;;5111074;27;20059;-84
2023/10/14 12:43:05;;;;;;;1999.90;999.90;;;;;;;;;;5110993;27;20044;-84
2023/10/14 12:45:32;;;;;;;1999.90;999.90;;;;;;;;;;5111846;27;20151;-86
2023/10/14 12:48:01;;;;;;;1999.90;999.90;;;;;;;;;;5111244;27;20503;-86
2023/10/14 12:50:28;;;;;;;1999.90;999.90;;;;;;;;;;5111292;27;20059;-84
2023/10/14 12:52:59;;;;;;;1999.90;999.90;;;;;;;;;;5113067;27;20505;-86
2023/10/14 12:55:26;;;;;;;1999.90;999.90;;;;;;;;;;5114474;27;20100;-86
2023/10/14 12:57:54;;;;;;;1999.90;999.90;;;;;;;;;;5115947;27;20051;-86
2023/10/14 13:00:25;;;;;;;1999.90;999.90;;;;;;;;;;5109732;27;20089;-87
2023/10/14 13:02:52;;;;;;;1999.90;999.90;;;;;;;;;;5110846;27;20056;-85
2023/10/14 13:05:20;;;;;;;1999.90;999.90;;;;;;;;;;5111651;27;20523;-86
2023/10/14 13:07:47;;;;;;;1999.90;999.90;;;;;;;;;;5109313;27;20062;-87
2023/10/14 13:10:18;;;;;;;1999.90;999.90;;;;;;;;;;5114341;27;20540;-85
2023/10/14 13:12:49;;;;;;;1999.90;999.90;;;;;;;;;;5110018;27;20501;-83
2023/10/14 13:15:25;;;;;;;1999.90;999.90;;;;;;;;;;5113920;27;20125;-86
2023/10/14 13:17:57;;;;;;;1999.90;999.90;;;;;;;;;;5107224;28;20047;-83
2023/10/14 13:20:28;;;;;;;1999.90;999.90;;;;;;;;;;5115261;27;20383;-86
2023/10/14 13:22:56;;;;;;;1999.90;999.90;;;;;;;;;;5108387;27;20066;-86
2023/10/14 13:25:24;;;;;;;1999.90;999.90;;;;;;;;;;5111338;27;20058;-84
2023/10/14 13:27:51;;;;;;;1999.90;999.90;;;;;;;;;;5111866;27;20493;-84
2023/10/14 13:30:22;;;;;;;1999.90;999.90;;;;;;;;;;5116076;27;20146;-84
2023/10/14 13:32:53;;;;;;;1999.90;999.90;;;;;;;;;;5108014;27;20071;-83
2023/10/14 13:35:19;;;;;;;1999.90;999.90;;;;;;;;;;5113103;27;20097;-83
2023/10/14 13:37:46;;;;;;;1999.90;999.90;;;;;;;;;;5117878;27;20484;-83
2023/10/14 13:40:13;;;;;;;1999.90;999.90;;;;;;;;;;5110088;27;20048;-87
2023/10/14 13:42:41;;;;;;;1999.90;999.90;;;;;;;;;;5113517;27;20040;-85
2023/10/14 13:45:12;;;;;;;1999.90;999.90;;;;;;;;;;5115943;27;20070;-86
2023/10/14 13:47:41;;;;;;;1999.90;999.90;;;;;;;;;;5108917;27;20044;-89
2023/10/14 13:50:10;;;;;;;1999.90;999.90;;;;;;;;;;5115074;27;20102;-84
2023/10/14 13:52:38;;;;;;;1999.90;999.90;;;;;;;;;;5108054;27;20047;-87
2023/10/14 13:55:06;;;;;;;1999.90;999.90;;;;;;;;;;5111628;27;20069;-84